sensor_id;sensor_type;location;lat;lon;timestamp;pressure;altitude;pressure_sealevel;temperature;humidity
61026;BME280;46911;32.650;-16.902;2022-12-18T00:00:20;101825.84;;;18.43;67.96
61026;BME280;46911;32.650;-16.902;2022-12-18T00:02:21;101809.41;;;18.34;67.91
61026;BME280;46911;32.650;-16.902;2022-12-18T00:04:27;101821.03;;;18.46;67.17
61026;BME280;46911;32.650;-16.902;2022-12-18T00:06:29;101821.03;;;18.46;67.02
61026;BME280;46911;32.650;-16.902;2022-12-18T00:08:30;101825.31;;;18.49;66.49
61026;BME280;46911;32.650;-16.902;2022-12-18T00:10:33;101806.06;;;18.42;66.68
61026;BME280;46911;32.650;-16.902;2022-12-18T00:12:34;101808.50;;;18.45;66.17
61026;BME280;46911;32.650;-16.902;2022-12-18T00:14:37;101810.81;;;18.50;66.38
61026;BME280;46911;32.650;-16.902;2022-12-18T00:16:43;101816.09;;;18.51;66.29
61026;BME280;46911;32.650;-16.902;2022-12-18T00:18:45;101790.25;;;18.37;66.40
61026;BME280;46911;32.650;-16.902;2022-12-18T00:20:46;101813.25;;;18.53;66.30
61026;BME280;46911;32.650;-16.902;2022-12-18T00:22:47;101811.81;;;18.49;66.45
61026;BME280;46911;32.650;-16.902;2022-12-18T00:24:53;101813.38;;;18.51;66.68
61026;BME280;46911;32.650;-16.902;2022-12-18T00:26:56;101802.97;;;18.47;66.54
61026;BME280;46911;32.650;-16.902;2022-12-18T00:29:03;101808.19;;;18.60;66.32
61026;BME280;46911;32.650;-16.902;2022-12-18T00:31:09;101820.91;;;18.69;66.35
61026;BME280;46911;32.650;-16.902;2022-12-18T00:33:15;101802.91;;;18.58;66.87
61026;BME280;46911;32.650;-16.902;2022-12-18T00:35:16;101804.63;;;18.59;66.78
61026;BME280;46911;32.650;-16.902;2022-12-18T00:37:19;101792.25;;;18.56;66.68
61026;BME280;46911;32.650;-16.902;2022-12-18T00:39:25;101801.34;;;18.55;66.51
61026;BME280;46911;32.650;-16.902;2022-12-18T00:41:26;101791.25;;;18.57;66.66
61026;BME280;46911;32.650;-16.902;2022-12-18T00:43:50;101800.28;;;18.68;66.19
61026;BME280;46911;32.650;-16.902;2022-12-18T00:45:54;101784.84;;;18.58;66.35
61026;BME280;46911;32.650;-16.902;2022-12-18T00:47:56;101793.31;;;18.65;65.89
61026;BME280;46911;32.650;-16.902;2022-12-18T00:49:59;101789.75;;;18.65;66.01
61026;BME280;46911;32.650;-16.902;2022-12-18T00:52:00;101788.91;;;18.64;66.15
61026;BME280;46911;32.650;-16.902;2022-12-18T00:54:00;101771.09;;;18.62;66.25
61026;BME280;46911;32.650;-16.902;2022-12-18T00:56:01;101770.50;;;18.58;66.23
61026;BME280;46911;32.650;-16.902;2022-12-18T00:58:02;101768.41;;;18.62;66.50
61026;BME280;46911;32.650;-16.902;2022-12-18T01:00:07;101774.25;;;18.67;66.57
61026;BME280;46911;32.650;-16.902;2022-12-18T01:02:09;101763.47;;;18.67;66.19
61026;BME280;46911;32.650;-16.902;2022-12-18T01:04:14;101751.19;;;18.63;66.22
61026;BME280;46911;32.650;-16.902;2022-12-18T01:06:16;101747.75;;;18.61;66.39
61026;BME280;46911;32.650;-16.902;2022-12-18T01:08:19;101744.91;;;18.62;66.39
61026;BME280;46911;32.650;-16.902;2022-12-18T01:10:20;101737.78;;;18.61;66.56
61026;BME280;46911;32.650;-16.902;2022-12-18T01:12:23;101749.66;;;18.70;66.90
61026;BME280;46911;32.650;-16.902;2022-12-18T01:14:29;101738.41;;;18.65;66.98
61026;BME280;46911;32.650;-16.902;2022-12-18T01:16:33;101737.28;;;18.67;66.73
61026;BME280;46911;32.650;-16.902;2022-12-18T01:18:36;101742.41;;;18.70;66.77
61026;BME280;46911;32.650;-16.902;2022-12-18T01:20:40;101745.25;;;18.69;66.48
61026;BME280;46911;32.650;-16.902;2022-12-18T01:22:41;101730.44;;;18.63;67.05
61026;BME280;46911;32.650;-16.902;2022-12-18T01:24:42;101701.31;;;18.46;67.20
61026;BME280;46911;32.650;-16.902;2022-12-18T01:26:47;101718.44;;;18.56;67.11
61026;BME280;46911;32.650;-16.902;2022-12-18T01:28:48;101725.16;;;18.62;67.31
61026;BME280;46911;32.650;-16.902;2022-12-18T01:30:49;101715.28;;;18.51;67.26
61026;BME280;46911;32.650;-16.902;2022-12-18T01:32:50;101719.91;;;18.60;67.17
61026;BME280;46911;32.650;-16.902;2022-12-18T01:34:51;101716.59;;;18.56;67.22
61026;BME280;46911;32.650;-16.902;2022-12-18T01:36:55;101713.88;;;18.56;67.47
61026;BME280;46911;32.650;-16.902;2022-12-18T01:38:59;101721.84;;;18.58;67.38
61026;BME280;46911;32.650;-16.902;2022-12-18T01:41:06;101720.88;;;18.59;67.29
61026;BME280;46911;32.650;-16.902;2022-12-18T01:43:09;101705.91;;;18.55;67.37
61026;BME280;46911;32.650;-16.902;2022-12-18T01:47:43;101713.78;;;18.68;67.16
61026;BME280;46911;32.650;-16.902;2022-12-18T01:49:49;101702.41;;;18.64;67.20
61026;BME280;46911;32.650;-16.902;2022-12-18T01:51:50;101710.25;;;18.67;67.14
61026;BME280;46911;32.650;-16.902;2022-12-18T01:53:52;101705.38;;;18.61;67.45
61026;BME280;46911;32.650;-16.902;2022-12-18T01:55:57;101715.94;;;18.64;67.85
61026;BME280;46911;32.650;-16.902;2022-12-18T01:58:02;101720.72;;;18.61;68.19
61026;BME280;46911;32.650;-16.902;2022-12-18T02:00:16;101719.00;;;18.60;68.23
61026;BME280;46911;32.650;-16.902;2022-12-18T02:02:21;101705.19;;;18.53;67.97
61026;BME280;46911;32.650;-16.902;2022-12-18T02:04:27;101715.59;;;18.57;68.16
61026;BME280;46911;32.650;-16.902;2022-12-18T02:06:36;101721.06;;;18.67;68.34
61026;BME280;46911;32.650;-16.902;2022-12-18T02:08:45;101727.91;;;18.71;68.52
61026;BME280;46911;32.650;-16.902;2022-12-18T02:11:06;101721.53;;;18.72;68.47
61026;BME280;46911;32.650;-16.902;2022-12-18T02:13:12;101728.91;;;18.70;68.47
61026;BME280;46911;32.650;-16.902;2022-12-18T02:15:22;101727.06;;;18.71;68.45
61026;BME280;46911;32.650;-16.902;2022-12-18T02:19:54;101729.16;;;18.67;68.93
61026;BME280;46911;32.650;-16.902;2022-12-18T02:22:14;101725.34;;;18.70;68.91
61026;BME280;46911;32.650;-16.902;2022-12-18T02:24:43;101734.28;;;18.70;68.72
61026;BME280;46911;32.650;-16.902;2022-12-18T02:27:09;101731.34;;;18.73;69.07
61026;BME280;46911;32.650;-16.902;2022-12-18T02:29:17;101730.63;;;18.71;68.94
61026;BME280;46911;32.650;-16.902;2022-12-18T02:31:25;101731.59;;;18.70;69.12
61026;BME280;46911;32.650;-16.902;2022-12-18T02:33:30;101728.47;;;18.65;69.61
61026;BME280;46911;32.650;-16.902;2022-12-18T02:35:34;101731.88;;;18.67;69.50
61026;BME280;46911;32.650;-16.902;2022-12-18T02:37:39;101735.56;;;18.66;69.32
61026;BME280;46911;32.650;-16.902;2022-12-18T02:39:43;101728.72;;;18.62;69.44
61026;BME280;46911;32.650;-16.902;2022-12-18T02:41:53;101736.69;;;18.64;69.56
61026;BME280;46911;32.650;-16.902;2022-12-18T02:44:01;101729.44;;;18.64;69.50
61026;BME280;46911;32.650;-16.902;2022-12-18T02:48:46;101742.97;;;18.64;69.71
61026;BME280;46911;32.650;-16.902;2022-12-18T02:51:02;101735.38;;;18.58;69.78
61026;BME280;46911;32.650;-16.902;2022-12-18T02:58:05;101750.72;;;18.57;70.11
61026;BME280;46911;32.650;-16.902;2022-12-18T03:00:20;101755.13;;;18.58;69.79
61026;BME280;46911;32.650;-16.902;2022-12-18T03:02:37;101757.25;;;18.55;69.76
61026;BME280;46911;32.650;-16.902;2022-12-18T03:04:48;101757.25;;;18.55;69.82
61026;BME280;46911;32.650;-16.902;2022-12-18T03:06:57;101755.25;;;18.57;70.06
61026;BME280;46911;32.650;-16.902;2022-12-18T03:09:03;101753.56;;;18.56;70.11
61026;BME280;46911;32.650;-16.902;2022-12-18T03:11:11;101755.72;;;18.62;69.80
61026;BME280;46911;32.650;-16.902;2022-12-18T03:13:20;101746.03;;;18.60;70.13
61026;BME280;46911;32.650;-16.902;2022-12-18T03:15:30;101737.88;;;18.50;70.15
61026;BME280;46911;32.650;-16.902;2022-12-18T03:17:44;101747.00;;;18.58;70.00
61026;BME280;46911;32.650;-16.902;2022-12-18T03:19:52;101746.31;;;18.56;69.97
61026;BME280;46911;32.650;-16.902;2022-12-18T03:21:56;101740.31;;;18.53;70.03
61026;BME280;46911;32.650;-16.902;2022-12-18T03:24:11;101740.91;;;18.56;70.23
61026;BME280;46911;32.650;-16.902;2022-12-18T03:26:16;101740.25;;;18.64;70.10
61026;BME280;46911;32.650;-16.902;2022-12-18T03:28:24;101739.78;;;18.59;70.02
61026;BME280;46911;32.650;-16.902;2022-12-18T03:30:33;101736.09;;;18.60;70.36
61026;BME280;46911;32.650;-16.902;2022-12-18T03:34:47;101741.69;;;18.68;69.68
61026;BME280;46911;32.650;-16.902;2022-12-18T03:36:53;101740.97;;;18.66;69.75
61026;BME280;46911;32.650;-16.902;2022-12-18T03:38:54;101723.97;;;18.54;69.46
61026;BME280;46911;32.650;-16.902;2022-12-18T03:41:11;101735.09;;;18.61;69.69
61026;BME280;46911;32.650;-16.902;2022-12-18T03:44:05;101727.25;;;18.58;69.40
61026;BME280;46911;32.650;-16.902;2022-12-18T03:46:30;101734.66;;;18.56;69.55
61026;BME280;46911;32.650;-16.902;2022-12-18T03:48:46;101723.53;;;18.49;69.25
61026;BME280;46911;32.650;-16.902;2022-12-18T03:53:05;101723.44;;;18.39;69.67
61026;BME280;46911;32.650;-16.902;2022-12-18T03:55:13;101715.53;;;18.27;70.19
61026;BME280;46911;32.650;-16.902;2022-12-18T03:57:21;101719.56;;;18.32;69.69
61026;BME280;46911;32.650;-16.902;2022-12-18T03:59:27;101723.09;;;18.33;69.69
61026;BME280;46911;32.650;-16.902;2022-12-18T04:01:34;101722.97;;;18.34;69.69
61026;BME280;46911;32.650;-16.902;2022-12-18T04:03:37;101707.53;;;18.25;69.79
61026;BME280;46911;32.650;-16.902;2022-12-18T04:05:45;101719.16;;;18.37;69.72
61026;BME280;46911;32.650;-16.902;2022-12-18T04:07:54;101715.19;;;18.41;69.38
61026;BME280;46911;32.650;-16.902;2022-12-18T04:09:58;101724.88;;;18.44;69.51
61026;BME280;46911;32.650;-16.902;2022-12-18T04:12:00;101714.06;;;18.44;69.39
61026;BME280;46911;32.650;-16.902;2022-12-18T04:14:01;101717.09;;;18.50;69.32
61026;BME280;46911;32.650;-16.902;2022-12-18T04:16:02;101714.41;;;18.50;69.39
61026;BME280;46911;32.650;-16.902;2022-12-18T04:18:03;101709.41;;;18.46;69.22
61026;BME280;46911;32.650;-16.902;2022-12-18T04:20:11;101716.25;;;18.50;69.51
61026;BME280;46911;32.650;-16.902;2022-12-18T04:22:16;101711.88;;;18.58;69.43
61026;BME280;46911;32.650;-16.902;2022-12-18T04:24:21;101702.00;;;18.48;69.68
61026;BME280;46911;32.650;-16.902;2022-12-18T04:26:36;101712.31;;;18.54;69.68
61026;BME280;46911;32.650;-16.902;2022-12-18T04:29:00;101718.31;;;18.57;70.14
61026;BME280;46911;32.650;-16.902;2022-12-18T04:31:04;101692.31;;;18.45;70.19
61026;BME280;46911;32.650;-16.902;2022-12-18T04:33:11;101706.16;;;18.52;70.02
61026;BME280;46911;32.650;-16.902;2022-12-18T04:35:13;101716.59;;;18.56;70.19
61026;BME280;46911;32.650;-16.902;2022-12-18T04:37:17;101705.44;;;18.50;70.26
61026;BME280;46911;32.650;-16.902;2022-12-18T04:39:21;101705.00;;;18.45;70.42
61026;BME280;46911;32.650;-16.902;2022-12-18T04:41:29;101717.97;;;18.51;70.62
61026;BME280;46911;32.650;-16.902;2022-12-18T04:43:34;101719.66;;;18.52;70.83
61026;BME280;46911;32.650;-16.902;2022-12-18T04:45:35;101724.38;;;18.50;70.66
61026;BME280;46911;32.650;-16.902;2022-12-18T04:47:38;101707.09;;;18.41;70.78
61026;BME280;46911;32.650;-16.902;2022-12-18T04:49:39;101703.94;;;18.36;71.08
61026;BME280;46911;32.650;-16.902;2022-12-18T04:51:42;101710.91;;;18.38;71.33
61026;BME280;46911;32.650;-16.902;2022-12-18T04:53:43;101716.72;;;18.34;71.54
61026;BME280;46911;32.650;-16.902;2022-12-18T04:55:48;101704.84;;;18.25;71.67
61026;BME280;46911;32.650;-16.902;2022-12-18T04:57:52;101709.06;;;18.18;72.01
61026;BME280;46911;32.650;-16.902;2022-12-18T04:59:55;101708.66;;;18.01;72.40
61026;BME280;46911;32.650;-16.902;2022-12-18T05:01:56;101699.84;;;17.88;72.77
61026;BME280;46911;32.650;-16.902;2022-12-18T05:03:59;101712.09;;;17.81;73.55
61026;BME280;46911;32.650;-16.902;2022-12-18T05:06:03;101704.06;;;17.69;73.66
61026;BME280;46911;32.650;-16.902;2022-12-18T05:08:07;101694.78;;;17.51;74.15
61026;BME280;46911;32.650;-16.902;2022-12-18T05:10:09;101708.75;;;17.56;74.21
61026;BME280;46911;32.650;-16.902;2022-12-18T05:12:12;101699.06;;;17.42;74.55
61026;BME280;46911;32.650;-16.902;2022-12-18T05:14:13;101695.03;;;17.36;74.72
61026;BME280;46911;32.650;-16.902;2022-12-18T05:16:19;101703.38;;;17.33;74.87
61026;BME280;46911;32.650;-16.902;2022-12-18T05:18:20;101716.47;;;17.38;75.02
61026;BME280;46911;32.650;-16.902;2022-12-18T05:20:24;101717.38;;;17.38;75.04
61026;BME280;46911;32.650;-16.902;2022-12-18T05:22:25;101712.81;;;17.39;74.88
61026;BME280;46911;32.650;-16.902;2022-12-18T05:24:28;101705.09;;;17.46;74.68
61026;BME280;46911;32.650;-16.902;2022-12-18T05:26:34;101697.38;;;17.41;74.46
61026;BME280;46911;32.650;-16.902;2022-12-18T05:28:35;101714.72;;;17.60;73.82
61026;BME280;46911;32.650;-16.902;2022-12-18T05:30:39;101720.88;;;17.62;73.73
61026;BME280;46911;32.650;-16.902;2022-12-18T05:32:45;101724.41;;;17.73;72.37
61026;BME280;46911;32.650;-16.902;2022-12-18T05:34:48;101694.03;;;17.60;72.12
61026;BME280;46911;32.650;-16.902;2022-12-18T05:36:52;101712.63;;;17.74;71.66
61026;BME280;46911;32.650;-16.902;2022-12-18T05:38:55;101706.84;;;17.79;70.95
61026;BME280;46911;32.650;-16.902;2022-12-18T05:40:57;101695.09;;;17.69;70.17
61026;BME280;46911;32.650;-16.902;2022-12-18T05:43:03;101714.94;;;17.79;70.16
61026;BME280;46911;32.650;-16.902;2022-12-18T05:45:05;101717.84;;;17.87;70.05
61026;BME280;46911;32.650;-16.902;2022-12-18T05:47:08;101703.53;;;17.76;70.02
61026;BME280;46911;32.650;-16.902;2022-12-18T05:49:09;101715.78;;;17.80;70.11
61026;BME280;46911;32.650;-16.902;2022-12-18T05:51:15;101714.66;;;17.82;70.26
61026;BME280;46911;32.650;-16.902;2022-12-18T05:53:18;101725.22;;;17.85;70.11
61026;BME280;46911;32.650;-16.902;2022-12-18T05:55:22;101730.88;;;17.82;70.47
61026;BME280;46911;32.650;-16.902;2022-12-18T05:57:26;101722.31;;;17.77;70.54
61026;BME280;46911;32.650;-16.902;2022-12-18T05:59:27;101724.63;;;17.82;70.34
61026;BME280;46911;32.650;-16.902;2022-12-18T06:01:28;101734.91;;;17.88;70.66
61026;BME280;46911;32.650;-16.902;2022-12-18T06:03:29;101741.28;;;17.98;71.25
61026;BME280;46911;32.650;-16.902;2022-12-18T06:05:35;101737.94;;;18.06;71.52
61026;BME280;46911;32.650;-16.902;2022-12-18T06:07:39;101740.28;;;18.11;71.61
61026;BME280;46911;32.650;-16.902;2022-12-18T06:09:39;101744.91;;;18.20;71.74
61026;BME280;46911;32.650;-16.902;2022-12-18T06:11:40;101732.13;;;18.22;71.85
61026;BME280;46911;32.650;-16.902;2022-12-18T06:13:41;101740.28;;;18.32;71.82
61026;BME280;46911;32.650;-16.902;2022-12-18T06:15:45;101739.44;;;18.31;71.75
61026;BME280;46911;32.650;-16.902;2022-12-18T06:17:49;101749.88;;;18.36;71.75
61026;BME280;46911;32.650;-16.902;2022-12-18T06:19:50;101750.31;;;18.41;71.81
61026;BME280;46911;32.650;-16.902;2022-12-18T06:21:50;101755.34;;;18.46;71.87
61026;BME280;46911;32.650;-16.902;2022-12-18T06:23:51;101752.63;;;18.46;71.89
61026;BME280;46911;32.650;-16.902;2022-12-18T06:25:53;101761.69;;;18.56;71.92
61026;BME280;46911;32.650;-16.902;2022-12-18T06:27:56;101763.78;;;18.52;72.51
61026;BME280;46911;32.650;-16.902;2022-12-18T06:29:56;101766.34;;;18.54;72.45
61026;BME280;46911;32.650;-16.902;2022-12-18T06:31:57;101768.19;;;18.53;72.54
61026;BME280;46911;32.650;-16.902;2022-12-18T06:34:03;101758.66;;;18.49;72.38
61026;BME280;46911;32.650;-16.902;2022-12-18T06:38:09;101756.19;;;18.46;72.43
61026;BME280;46911;32.650;-16.902;2022-12-18T06:40:10;101764.75;;;18.51;72.75
61026;BME280;46911;32.650;-16.902;2022-12-18T06:42:13;101759.16;;;18.43;72.53
61026;BME280;46911;32.650;-16.902;2022-12-18T06:44:17;101755.72;;;18.41;72.64
61026;BME280;46911;32.650;-16.902;2022-12-18T06:46:18;101773.28;;;18.47;72.59
61026;BME280;46911;32.650;-16.902;2022-12-18T06:48:19;101760.13;;;18.42;72.44
61026;BME280;46911;32.650;-16.902;2022-12-18T06:50:22;101775.22;;;18.45;72.75
61026;BME280;46911;32.650;-16.902;2022-12-18T06:52:23;101766.91;;;18.36;72.70
61026;BME280;46911;32.650;-16.902;2022-12-18T06:54:27;101770.81;;;18.44;72.92
61026;BME280;46911;32.650;-16.902;2022-12-18T06:56:28;101773.56;;;18.32;73.14
61026;BME280;46911;32.650;-16.902;2022-12-18T06:58:33;101787.31;;;18.29;73.45
61026;BME280;46911;32.650;-16.902;2022-12-18T07:00:34;101781.19;;;18.27;73.77
61026;BME280;46911;32.650;-16.902;2022-12-18T07:02:38;101779.34;;;18.28;73.60
61026;BME280;46911;32.650;-16.902;2022-12-18T07:04:39;101771.09;;;18.29;73.38
61026;BME280;46911;32.650;-16.902;2022-12-18T07:06:40;101772.59;;;18.33;73.26
61026;BME280;46911;32.650;-16.902;2022-12-18T07:08:41;101769.16;;;18.31;73.27
61026;BME280;46911;32.650;-16.902;2022-12-18T07:10:43;101785.97;;;18.35;73.24
61026;BME280;46911;32.650;-16.902;2022-12-18T07:12:44;101773.56;;;18.32;73.33
61026;BME280;46911;32.650;-16.902;2022-12-18T07:14:47;101782.38;;;18.34;72.93
61026;BME280;46911;32.650;-16.902;2022-12-18T07:16:53;101779.31;;;18.39;73.06
61026;BME280;46911;32.650;-16.902;2022-12-18T07:18:56;101776.97;;;18.34;72.63
61026;BME280;46911;32.650;-16.902;2022-12-18T07:20:57;101793.44;;;18.43;72.78
61026;BME280;46911;32.650;-16.902;2022-12-18T07:23:04;101780.97;;;18.51;72.47
61026;BME280;46911;32.650;-16.902;2022-12-18T07:25:09;101788.38;;;18.49;72.29
61026;BME280;46911;32.650;-16.902;2022-12-18T07:27:12;101772.53;;;18.45;72.42
61026;BME280;46911;32.650;-16.902;2022-12-18T07:29:15;101779.25;;;18.50;72.19
61026;BME280;46911;32.650;-16.902;2022-12-18T07:31:20;101771.53;;;18.46;72.10
61026;BME280;46911;32.650;-16.902;2022-12-18T07:33:24;101773.84;;;18.50;72.12
61026;BME280;46911;32.650;-16.902;2022-12-18T07:35:25;101780.91;;;18.42;71.95
61026;BME280;46911;32.650;-16.902;2022-12-18T07:37:25;101781.47;;;18.45;72.16
61026;BME280;46911;32.650;-16.902;2022-12-18T07:39:26;101781.09;;;18.50;71.94
61026;BME280;46911;32.650;-16.902;2022-12-18T07:41:30;101777.56;;;18.49;71.91
61026;BME280;46911;32.650;-16.902;2022-12-18T07:43:42;101770.81;;;18.44;71.88
61026;BME280;46911;32.650;-16.902;2022-12-18T07:45:43;101771.28;;;18.49;71.70
61026;BME280;46911;32.650;-16.902;2022-12-18T07:47:46;101757.56;;;18.40;71.71
61026;BME280;46911;32.650;-16.902;2022-12-18T07:49:47;101768.25;;;18.42;71.67
61026;BME280;46911;32.650;-16.902;2022-12-18T07:51:50;101744.72;;;18.33;71.54
61026;BME280;46911;32.650;-16.902;2022-12-18T07:53:56;101755.34;;;18.46;71.27
61026;BME280;46911;32.650;-16.902;2022-12-18T07:56:05;101761.59;;;18.46;71.32
61026;BME280;46911;32.650;-16.902;2022-12-18T07:58:08;101756.44;;;18.43;71.04
61026;BME280;46911;32.650;-16.902;2022-12-18T08:00:15;101766.41;;;18.43;70.68
61026;BME280;46911;32.650;-16.902;2022-12-18T08:02:19;101778.91;;;18.44;70.83
61026;BME280;46911;32.650;-16.902;2022-12-18T08:04:24;101772.31;;;18.36;71.17
61026;BME280;46911;32.650;-16.902;2022-12-18T08:06:28;101789.72;;;18.44;71.15
61026;BME280;46911;32.650;-16.902;2022-12-18T08:08:34;101792.03;;;18.48;70.58
61026;BME280;46911;32.650;-16.902;2022-12-18T08:10:38;101793.16;;;18.46;70.57
61026;BME280;46911;32.650;-16.902;2022-12-18T08:12:39;101782.50;;;18.44;70.25
61026;BME280;46911;32.650;-16.902;2022-12-18T08:14:40;101782.81;;;18.51;70.07
61026;BME280;46911;32.650;-16.902;2022-12-18T08:16:43;101786.00;;;18.56;69.73
61026;BME280;46911;32.650;-16.902;2022-12-18T08:18:44;101780.13;;;18.51;70.07
61026;BME280;46911;32.650;-16.902;2022-12-18T08:20:47;101789.22;;;18.50;70.10
61026;BME280;46911;32.650;-16.902;2022-12-18T08:22:48;101780.84;;;18.53;69.87
61026;BME280;46911;32.650;-16.902;2022-12-18T08:24:54;101779.38;;;18.49;70.35
61026;BME280;46911;32.650;-16.902;2022-12-18T08:26:55;101783.66;;;18.51;70.07
61026;BME280;46911;32.650;-16.902;2022-12-18T08:28:58;101791.25;;;18.57;69.92
61026;BME280;46911;32.650;-16.902;2022-12-18T08:31:00;101784.97;;;18.57;69.88
61026;BME280;46911;32.650;-16.902;2022-12-18T08:33:01;101798.72;;;18.65;69.48
61026;BME280;46911;32.650;-16.902;2022-12-18T08:35:02;101787.31;;;18.62;69.59
61026;BME280;46911;32.650;-16.902;2022-12-18T08:37:06;101803.84;;;18.68;69.53
61026;BME280;46911;32.650;-16.902;2022-12-18T08:39:11;101803.72;;;18.70;69.25
61026;BME280;46911;32.650;-16.902;2022-12-18T08:41:14;101789.47;;;18.68;69.34
61026;BME280;46911;32.650;-16.902;2022-12-18T08:43:17;101797.34;;;18.71;69.38
61026;BME280;46911;32.650;-16.902;2022-12-18T08:45:40;101812.75;;;18.80;69.04
61026;BME280;46911;32.650;-16.902;2022-12-18T08:47:44;101808.22;;;18.81;69.01
61026;BME280;46911;32.650;-16.902;2022-12-18T08:49:47;101816.78;;;18.86;68.92
61026;BME280;46911;32.650;-16.902;2022-12-18T08:51:48;101806.94;;;18.85;68.83
61026;BME280;46911;32.650;-16.902;2022-12-18T08:53:51;101820.81;;;18.92;68.98
61026;BME280;46911;32.650;-16.902;2022-12-18T08:55:52;101822.91;;;18.88;68.37
61026;BME280;46911;32.650;-16.902;2022-12-18T08:57:53;101827.59;;;18.86;68.31
61026;BME280;46911;32.650;-16.902;2022-12-18T08:59:54;101844.22;;;19.02;68.27
61026;BME280;46911;32.650;-16.902;2022-12-18T09:01:55;101823.84;;;18.98;67.59
61026;BME280;46911;32.650;-16.902;2022-12-18T09:03:58;101813.00;;;18.88;67.87
61026;BME280;46911;32.650;-16.902;2022-12-18T09:06:01;101834.63;;;19.10;67.13
61026;BME280;46911;32.650;-16.902;2022-12-18T09:08:03;101836.63;;;19.17;67.02
61026;BME280;46911;32.650;-16.902;2022-12-18T09:10:06;101844.09;;;19.25;67.20
61026;BME280;46911;32.650;-16.902;2022-12-18T09:12:08;101837.88;;;19.34;66.74
61026;BME280;46911;32.650;-16.902;2022-12-18T09:14:11;101850.78;;;19.52;66.05
61026;BME280;46911;32.650;-16.902;2022-12-18T09:16:12;101845.22;;;19.53;65.59
61026;BME280;46911;32.650;-16.902;2022-12-18T09:18:17;101846.88;;;19.66;65.07
61026;BME280;46911;32.650;-16.902;2022-12-18T09:20:18;101843.69;;;19.82;64.43
61026;BME280;46911;32.650;-16.902;2022-12-18T09:22:19;101842.97;;;19.89;64.54
61026;BME280;46911;32.650;-16.902;2022-12-18T09:24:20;101846.41;;;20.01;64.43
61026;BME280;46911;32.650;-16.902;2022-12-18T09:26:25;101843.31;;;20.16;63.82
61026;BME280;46911;32.650;-16.902;2022-12-18T09:28:29;101860.75;;;20.33;63.05
61026;BME280;46911;32.650;-16.902;2022-12-18T09:30:30;101847.34;;;20.51;62.26
61026;BME280;46911;32.650;-16.902;2022-12-18T09:32:35;101839.09;;;20.52;62.39
61026;BME280;46911;32.650;-16.902;2022-12-18T09:34:39;101853.63;;;20.51;62.21
61026;BME280;46911;32.650;-16.902;2022-12-18T09:36:43;101850.94;;;20.61;61.70
61026;BME280;46911;32.650;-16.902;2022-12-18T09:38:49;101864.66;;;20.69;61.14
61026;BME280;46911;32.650;-16.902;2022-12-18T09:40:57;101874.50;;;20.90;61.01
61026;BME280;46911;32.650;-16.902;2022-12-18T09:43:04;101869.34;;;21.06;60.59
61026;BME280;46911;32.650;-16.902;2022-12-18T09:45:12;101873.03;;;21.15;60.12
61026;BME280;46911;32.650;-16.902;2022-12-18T09:49:20;101879.25;;;21.45;59.53
61026;BME280;46911;32.650;-16.902;2022-12-18T09:53:31;101874.06;;;21.62;58.86
61026;BME280;46911;32.650;-16.902;2022-12-18T09:55:38;101885.56;;;21.83;58.29
61026;BME280;46911;32.650;-16.902;2022-12-18T09:57:49;101893.00;;;21.81;57.79
61026;BME280;46911;32.650;-16.902;2022-12-18T10:00:03;101882.13;;;21.81;57.08
61026;BME280;46911;32.650;-16.902;2022-12-18T10:02:18;101906.13;;;21.86;57.18
61026;BME280;46911;32.650;-16.902;2022-12-18T10:04:21;101906.28;;;21.84;56.91
61026;BME280;46911;32.650;-16.902;2022-12-18T10:06:54;101911.06;;;22.00;56.49
61026;BME280;46911;32.650;-16.902;2022-12-18T10:09:12;101897.06;;;21.95;56.23
61026;BME280;46911;32.650;-16.902;2022-12-18T10:14:23;101906.63;;;22.55;55.50
61026;BME280;46911;32.650;-16.902;2022-12-18T10:16:41;101905.63;;;22.92;53.84
61026;BME280;46911;32.650;-16.902;2022-12-18T10:19:09;101912.81;;;23.19;53.68
61026;BME280;46911;32.650;-16.902;2022-12-18T10:21:23;101917.66;;;23.52;52.37
61026;BME280;46911;32.650;-16.902;2022-12-18T10:25:40;101920.91;;;23.29;52.62
61026;BME280;46911;32.650;-16.902;2022-12-18T10:27:49;101910.13;;;23.01;53.47
61026;BME280;46911;32.650;-16.902;2022-12-18T10:29:52;101909.28;;;22.83;53.49
61026;BME280;46911;32.650;-16.902;2022-12-18T10:31:54;101909.41;;;22.63;53.90
61026;BME280;46911;32.650;-16.902;2022-12-18T10:33:55;101909.41;;;22.63;54.17
61026;BME280;46911;32.650;-16.902;2022-12-18T10:35:56;101920.69;;;22.50;54.23
61026;BME280;46911;32.650;-16.902;2022-12-18T10:40:14;101929.78;;;22.41;55.59
61026;BME280;46911;32.650;-16.902;2022-12-18T10:42:19;101930.69;;;22.22;55.79
61026;BME280;46911;32.650;-16.902;2022-12-18T10:44:23;101945.53;;;22.00;56.23
61026;BME280;46911;32.650;-16.902;2022-12-18T10:46:28;101936.63;;;21.80;56.25
61026;BME280;46911;32.650;-16.902;2022-12-18T10:48:30;101940.63;;;21.76;56.63
61026;BME280;46911;32.650;-16.902;2022-12-18T10:50:38;101941.31;;;21.87;56.66
61026;BME280;46911;32.650;-16.902;2022-12-18T10:52:56;101949.25;;;21.99;56.65
61026;BME280;46911;32.650;-16.902;2022-12-18T10:55:02;101947.78;;;22.14;56.33
61026;BME280;46911;32.650;-16.902;2022-12-18T10:57:34;101949.13;;;22.28;56.14
61026;BME280;46911;32.650;-16.902;2022-12-18T10:59:51;101958.69;;;22.32;56.38
61026;BME280;46911;32.650;-16.902;2022-12-18T11:01:57;101950.22;;;22.07;56.97
61026;BME280;46911;32.650;-16.902;2022-12-18T11:04:08;101957.59;;;22.15;57.28
61026;BME280;46911;32.650;-16.902;2022-12-18T11:06:12;101959.72;;;22.21;57.62
61026;BME280;46911;32.650;-16.902;2022-12-18T11:08:20;101963.09;;;22.05;58.06